Time;durP1;ratioP1;P1;durP2;ratioP2;P2;SDS_P1;SDS_P2;PMS_P1;PMS_P2;Temp;Humidity;BMP_temperature;BMP_pressure;BME280_temperature;BME280_humidity;BME280_pressure;Samples;Min_cycle;Max_cycle;Signal;HPM_P1;HPM_P2
2023/03/10 00:00:28;;;;;;;3.50;1.87;;;11.70;99.90;;;;;;10306965;28;20229;-69
2023/03/10 00:05:29;;;;;;;4.43;1.77;;;11.70;99.90;;;;;;10314340;28;20230;-66
2023/03/10 00:10:30;;;;;;;4.13;1.50;;;11.70;99.90;;;;;;10314065;28;20423;-68
2023/03/10 00:15:33;;;;;;;4.10;1.43;;;11.70;99.90;;;;;;10323523;28;20233;-66
2023/03/10 00:20:34;;;;;;;2.70;0.80;;;11.70;99.90;;;;;;10321580;28;20206;-67
2023/03/10 00:25:34;;;;;;;1.20;0.70;;;11.80;99.90;;;;;;10310174;28;20240;-66
2023/03/10 00:30:35;;;;;;;2.17;0.70;;;11.90;99.90;;;;;;10313833;28;20376;-67
2023/03/10 00:35:35;;;;;;;3.70;0.60;;;12.00;99.90;;;;;;10319568;28;20222;-67
2023/03/10 00:40:36;;;;;;;3.53;0.80;;;12.00;99.90;;;;;;10317125;28;20601;-66
2023/03/10 00:45:36;;;;;;;2.30;0.83;;;12.10;99.90;;;;;;10312370;28;20241;-66
2023/03/10 00:50:37;;;;;;;2.37;0.80;;;12.00;99.90;;;;;;10307397;28;20368;-66
2023/03/10 00:55:37;;;;;;;1.53;0.77;;;12.00;99.90;;;;;;10319340;28;20226;-68
2023/03/10 01:00:38;;;;;;;2.20;0.80;;;12.00;99.90;;;;;;10312593;28;20240;-67
2023/03/10 01:05:39;;;;;;;1.47;0.70;;;11.90;99.90;;;;;;10316466;28;20231;-67
2023/03/10 01:10:39;;;;;;;1.13;0.57;;;11.90;99.90;;;;;;10307572;28;20221;-67
2023/03/10 01:15:40;;;;;;;1.30;0.40;;;11.90;99.90;;;;;;10311231;28;20231;-67
2023/03/10 01:20:41;;;;;;;1.40;0.70;;;11.90;99.90;;;;;;10326191;28;20308;-67
2023/03/10 01:25:42;;;;;;;1.10;0.70;;;11.90;99.90;;;;;;10314928;28;20301;-65
2023/03/10 01:30:43;;;;;;;1.57;0.70;;;11.90;99.90;;;;;;10315152;28;20312;-66
2023/03/10 01:35:44;;;;;;;3.20;0.90;;;11.90;99.90;;;;;;10327005;28;20232;-66
2023/03/10 01:40:49;;;;;;;2.30;0.90;;;11.80;99.90;;;;;;10310335;28;20229;-66
2023/03/10 01:45:50;;;;;;;1.10;0.53;;;11.80;99.90;;;;;;10328750;28;20230;-69
2023/03/10 01:50:54;;;;;;;1.50;0.77;;;11.70;99.90;;;;;;10317092;28;20710;-66
2023/03/10 01:56:01;;;;;;;1.47;0.60;;;11.70;99.90;;;;;;10321908;28;20292;-67
2023/03/10 02:01:02;;;;;;;1.83;0.80;;;11.70;99.90;;;;;;10330743;28;20861;-67
2023/03/10 02:06:08;;;;;;;1.70;0.90;;;11.70;99.90;;;;;;10336255;28;20225;-67
2023/03/10 02:11:09;;;;;;;2.47;0.80;;;11.70;99.90;;;;;;10319611;28;20325;-65
2023/03/10 02:16:10;;;;;;;1.40;0.90;;;11.60;99.90;;;;;;10324422;28;20230;-66
2023/03/10 02:21:30;;;;;;;1.93;0.90;;;11.50;99.90;;;;;;10309219;28;20593;-70
2023/03/10 02:26:40;;;;;;;0.73;0.57;;;11.40;99.90;;;;;;10316395;28;20256;-67
2023/03/10 02:31:42;;;;;;;0.97;0.80;;;11.40;99.90;;;;;;10316758;28;20231;-67
2023/03/10 02:36:43;;;;;;;1.93;0.90;;;11.30;99.90;;;;;;10315867;28;20222;-68
2023/03/10 02:41:44;;;;;;;2.57;0.73;;;11.20;99.90;;;;;;10314468;28;20226;-65
2023/03/10 02:46:44;;;;;;;1.13;0.50;;;11.20;99.90;;;;;;10311815;28;20221;-64
2023/03/10 02:51:46;;;;;;;2.07;0.87;;;11.20;99.90;;;;;;10324673;28;20214;-64
2023/03/10 02:56:46;;;;;;;1.10;0.70;;;11.20;99.90;;;;;;10320044;28;20230;-67
2023/03/10 03:01:47;;;;;;;1.03;0.73;;;11.20;99.90;;;;;;10313219;28;20230;-67
2023/03/10 03:06:47;;;;;;;2.40;0.70;;;11.20;99.90;;;;;;10318052;28;20221;-67
2023/03/10 03:11:48;;;;;;;1.07;0.53;;;11.20;99.90;;;;;;10308955;28;20682;-67
2023/03/10 03:16:48;;;;;;;1.47;0.90;;;11.20;99.90;;;;;;10312159;28;20592;-67
2023/03/10 03:21:49;;;;;;;2.80;0.93;;;11.10;99.90;;;;;;10313936;28;20802;-66
2023/03/10 03:26:49;;;;;;;1.40;0.63;;;11.10;99.90;;;;;;10310648;28;20225;-66
2023/03/10 03:31:53;;;;;;;1.50;0.70;;;11.10;99.90;;;;;;10308585;28;20686;-67
2023/03/10 03:36:54;;;;;;;2.23;0.60;;;11.00;99.90;;;;;;10312351;28;20609;-67
2023/03/10 03:41:56;;;;;;;2.30;0.70;;;10.90;99.90;;;;;;10312618;28;20233;-66
2023/03/10 03:46:56;;;;;;;2.67;0.70;;;10.80;99.90;;;;;;10316755;28;20214;-66
2023/03/10 03:51:57;;;;;;;2.10;0.50;;;10.80;99.90;;;;;;10320516;28;20284;-66
2023/03/10 03:56:58;;;;;;;1.63;0.80;;;10.60;99.90;;;;;;10327381;28;20604;-66
2023/03/10 04:01:58;;;;;;;1.80;0.83;;;10.50;99.90;;;;;;10316540;28;20270;-65
2023/03/10 04:07:00;;;;;;;0.60;0.50;;;10.30;99.90;;;;;;10314770;28;20300;-65
2023/03/10 04:12:00;;;;;;;1.20;0.80;;;10.40;99.90;;;;;;10326267;28;20225;-66
2023/03/10 04:17:02;;;;;;;1.60;0.93;;;10.40;99.90;;;;;;10321175;28;20702;-69
2023/03/10 04:22:02;;;;;;;1.53;1.00;;;10.50;99.90;;;;;;10317705;28;20296;-67
2023/03/10 04:27:03;;;;;;;4.63;1.30;;;10.50;99.90;;;;;;10316668;28;20272;-67
2023/03/10 04:32:04;;;;;;;2.40;1.20;;;10.60;99.90;;;;;;10309691;28;20218;-68
2023/03/10 04:37:05;;;;;;;2.63;1.17;;;10.50;99.90;;;;;;10315618;28;20268;-67
2023/03/10 04:42:05;;;;;;;2.20;0.90;;;10.50;99.90;;;;;;10308509;28;20238;-66
2023/03/10 04:47:06;;;;;;;2.57;1.20;;;10.40;99.90;;;;;;10323059;28;20225;-67
2023/03/10 04:52:06;;;;;;;2.27;1.20;;;10.40;99.90;;;;;;10314323;28;20693;-68
2023/03/10 04:57:08;;;;;;;2.50;1.20;;;10.40;99.90;;;;;;10304660;28;20250;-66
2023/03/10 05:02:08;;;;;;;3.37;1.27;;;10.40;99.90;;;;;;10322225;28;20234;-66
2023/03/10 05:07:09;;;;;;;4.47;1.27;;;10.40;99.90;;;;;;10317908;28;20219;-68
2023/03/10 05:12:12;;;;;;;2.00;1.13;;;10.40;99.90;;;;;;10324780;28;20225;-67
2023/03/10 05:17:16;;;;;;;2.57;1.10;;;10.40;99.90;;;;;;10321236;28;20218;-67
2023/03/10 05:22:16;;;;;;;4.03;1.20;;;10.30;99.90;;;;;;10317677;28;20270;-68
2023/03/10 05:27:18;;;;;;;3.83;1.10;;;10.30;99.90;;;;;;10331346;28;20796;-73
2023/03/10 05:32:19;;;;;;;2.93;1.17;;;10.30;99.90;;;;;;10319098;28;20233;-72
2023/03/10 05:37:19;;;;;;;1.90;1.07;;;10.40;99.90;;;;;;10311721;28;20695;-70
2023/03/10 05:42:20;;;;;;;3.93;1.30;;;10.30;99.90;;;;;;10315520;28;20221;-70
2023/03/10 05:47:20;;;;;;;6.23;3.40;;;10.30;99.90;;;;;;10328190;28;20214;-69
2023/03/10 05:52:21;;;;;;;5.20;2.20;;;10.40;99.90;;;;;;10326535;28;20751;-69
2023/03/10 05:57:22;;;;;;;6.67;2.13;;;10.50;99.90;;;;;;10320793;28;20630;-70
2023/03/10 06:02:22;;;;;;;4.20;1.33;;;10.40;99.90;;;;;;10320940;28;20702;-69
2023/03/10 06:07:23;;;;;;;3.40;1.50;;;10.50;99.90;;;;;;10335648;28;20226;-69
2023/03/10 06:12:24;;;;;;;4.70;1.27;;;10.40;99.90;;;;;;10326937;28;20214;-68
2023/03/10 06:17:24;;;;;;;3.67;1.50;;;10.40;99.90;;;;;;10328571;28;20280;-68
2023/03/10 06:22:25;;;;;;;5.27;1.50;;;10.50;99.90;;;;;;10326741;28;20222;-69
2023/03/10 06:27:26;;;;;;;4.70;1.90;;;10.40;99.90;;;;;;10328794;28;20224;-69
2023/03/10 06:32:26;;;;;;;3.80;1.60;;;10.20;99.90;;;;;;10327569;28;20299;-69
2023/03/10 06:37:27;;;;;;;3.40;1.40;;;10.20;99.90;;;;;;10327792;28;20272;-68
2023/03/10 06:42:30;;;;;;;3.23;1.40;;;10.20;99.90;;;;;;10327542;28;20256;-70
2023/03/10 06:47:31;;;;;;;4.50;1.70;;;10.20;99.90;;;;;;10356637;28;20218;-71
2023/03/10 06:52:33;;;;;;;7.37;3.00;;;10.40;99.90;;;;;;10321844;28;20252;-71
2023/03/10 06:57:33;;;;;;;4.37;1.90;;;10.40;99.90;;;;;;10327888;28;20222;-73
2023/03/10 07:02:34;;;;;;;5.53;1.87;;;10.40;99.90;;;;;;10326105;28;20622;-72
2023/03/10 07:07:34;;;;;;;4.20;1.70;;;10.40;99.90;;;;;;10325693;28;20236;-72
2023/03/10 07:12:35;;;;;;;3.43;1.80;;;10.40;99.90;;;;;;10323591;28;20217;-70
2023/03/10 07:17:36;;;;;;;4.13;1.60;;;10.60;99.90;;;;;;10328113;28;20249;-72
2023/03/10 07:22:36;;;;;;;2.73;1.27;;;10.80;99.90;;;;;;10325437;28;20578;-70
2023/03/10 07:27:37;;;;;;;4.87;1.67;;;11.00;99.90;;;;;;10328274;28;20248;-72
2023/03/10 07:32:38;;;;;;;4.00;1.50;;;11.20;99.90;;;;;;10325028;28;20230;-71
2023/03/10 07:37:39;;;;;;;4.17;1.20;;;11.20;99.90;;;;;;10312617;28;20272;-70
2023/03/10 07:42:42;;;;;;;4.53;1.40;;;11.20;99.90;;;;;;10311469;28;20241;-70
2023/03/10 07:47:42;;;;;;;4.33;1.80;;;11.20;99.90;;;;;;10320443;28;20218;-70
2023/03/10 07:52:43;;;;;;;5.03;1.70;;;11.30;99.90;;;;;;10324756;28;20218;-70
2023/03/10 07:57:44;;;;;;;6.33;1.40;;;11.40;99.90;;;;;;10324870;28;20225;-70
2023/03/10 08:02:44;;;;;;;4.00;1.70;;;11.50;99.90;;;;;;10325716;28;20222;-71
2023/03/10 08:07:45;;;;;;;5.07;1.20;;;11.70;99.90;;;;;;10327136;28;20751;-71
2023/03/10 08:12:46;;;;;;;4.27;1.90;;;11.90;99.90;;;;;;10328908;28;20795;-71
2023/03/10 08:17:48;;;;;;;6.20;1.50;;;12.10;99.90;;;;;;10324604;28;20226;-71
2023/03/10 08:22:48;;;;;;;4.93;1.03;;;12.10;99.90;;;;;;10325593;28;20284;-71
2023/03/10 08:27:49;;;;;;;3.63;0.70;;;11.90;99.90;;;;;;10323252;28;20230;-72
2023/03/10 08:32:50;;;;;;;2.80;0.43;;;11.70;99.90;;;;;;10322433;28;20957;-71
2023/03/10 08:37:51;;;;;;;1.37;0.37;;;11.60;99.90;;;;;;10323995;28;20228;-71
2023/03/10 08:42:52;;;;;;;1.67;0.53;;;11.80;99.90;;;;;;10317871;28;20299;-70
2023/03/10 08:47:53;;;;;;;1.53;0.60;;;11.90;99.90;;;;;;10322381;28;20713;-70
2023/03/10 08:52:53;;;;;;;1.43;0.33;;;12.10;99.90;;;;;;10323073;28;20269;-71
2023/03/10 08:58:06;;;;;;;4.93;0.70;;;12.20;99.90;;;;;;10321670;28;20229;-73
2023/03/10 09:03:07;;;;;;;1.70;0.60;;;12.60;99.90;;;;;;10323922;28;20236;-71
2023/03/10 09:08:08;;;;;;;1.47;0.60;;;12.80;99.90;;;;;;10309621;28;20237;-71
2023/03/10 09:13:09;;;;;;;2.37;0.77;;;12.80;99.90;;;;;;10309553;28;20253;-71
2023/03/10 09:18:12;;;;;;;2.10;0.80;;;14.30;99.90;;;;;;10308755;28;20604;-70
2023/03/10 09:23:14;;;;;;;2.77;0.87;;;20.30;99.90;;;;;;10310856;28;21517;-70
2023/03/10 09:28:15;;;;;;;3.63;0.80;;;21.20;90.60;;;;;;10316861;28;20224;-68
2023/03/10 09:33:20;;;;;;;3.07;1.00;;;18.80;93.20;;;;;;10311012;28;20226;-69
2023/03/10 09:38:21;;;;;;;4.47;1.20;;;16.40;98.90;;;;;;10341441;28;20222;-70
2023/03/10 09:43:22;;;;;;;2.80;1.00;;;14.80;99.90;;;;;;10320145;28;20226;-72
2023/03/10 09:48:44;;;;;;;3.30;0.87;;;13.80;99.90;;;;;;10324722;28;20237;-72
2023/03/10 09:54:00;;;;;;;5.70;1.00;;;13.30;99.90;;;;;;10318473;28;20300;-72
2023/03/10 09:59:08;;;;;;;3.23;1.20;;;13.00;99.90;;;;;;10308915;28;20324;-70
2023/03/10 10:04:32;;;;;;;4.47;1.00;;;12.70;99.90;;;;;;10327056;28;20770;-69
2023/03/10 10:09:41;;;;;;;4.20;1.70;;;12.50;99.90;;;;;;10326441;28;20218;-72
2023/03/10 10:14:42;;;;;;;2.90;1.10;;;12.30;99.90;;;;;;10320601;28;20234;-70
2023/03/10 10:19:45;;;;;;;5.70;1.60;;;12.30;99.90;;;;;;10331583;28;20241;-71
2023/03/10 10:25:07;;;;;;;3.53;1.30;;;12.40;99.90;;;;;;10320867;28;20234;-71
2023/03/10 10:30:30;;;;;;;3.43;0.80;;;12.90;99.90;;;;;;10327562;28;20288;-71
2023/03/10 10:35:35;;;;;;;3.57;0.97;;;13.30;99.90;;;;;;10326485;28;20670;-71
2023/03/10 10:40:58;;;;;;;2.80;0.80;;;13.50;99.90;;;;;;10329881;28;20222;-69
2023/03/10 10:46:07;;;;;;;0.97;0.60;;;13.00;99.90;;;;;;10338381;28;20230;-72
2023/03/10 10:51:28;;;;;;;1.50;0.70;;;12.80;99.90;;;;;;10333343;28;20384;-71
2023/03/10 10:56:29;;;;;;;2.20;0.83;;;12.60;99.90;;;;;;10316209;28;20246;-74
2023/03/10 11:01:51;;;;;;;1.90;0.60;;;12.50;99.90;;;;;;10320732;28;20251;-71
2023/03/10 11:07:18;;;;;;;3.40;0.97;;;12.40;99.90;;;;;;10326051;28;20229;-74
2023/03/10 11:12:24;;;;;;;1.43;0.60;;;12.50;99.90;;;;;;10321234;28;20217;-72
2023/03/10 11:17:50;;;;;;;1.23;0.70;;;12.90;99.90;;;;;;10325606;28;20214;-71
2023/03/10 11:23:14;;;;;;;0.57;0.40;;;13.60;99.90;;;;;;10327589;28;20235;-72
2023/03/10 11:28:15;;;;;;;1.23;0.60;;;13.60;99.90;;;;;;10325369;28;20214;-70
2023/03/10 11:33:39;;;;;;;0.73;0.47;;;13.40;99.90;;;;;;10326655;28;20751;-70
2023/03/10 11:38:45;;;;;;;1.47;0.60;;;13.10;99.90;;;;;;10338609;28;20225;-69
2023/03/10 11:44:00;;;;;;;1.47;0.77;;;13.80;99.90;;;;;;10316915;28;20231;-71
2023/03/10 11:49:23;;;;;;;1.10;0.63;;;14.50;99.90;;;;;;10317383;28;20218;-71
2023/03/10 11:54:38;;;;;;;5.30;0.90;;;14.50;99.90;;;;;;10324273;28;20222;-72
2023/03/10 11:59:52;;;;;;;1.80;0.80;;;14.20;99.90;;;;;;10312853;28;20226;-70
2023/03/10 12:05:09;;;;;;;2.70;0.60;;;14.20;99.90;;;;;;10323127;28;20233;-71
2023/03/10 12:10:10;;;;;;;6.70;0.83;;;14.20;99.90;;;;;;10323858;28;20221;-72
2023/03/10 12:15:21;;;;;;;2.90;0.60;;;14.30;99.90;;;;;;10324956;28;20182;-72
2023/03/10 12:20:23;;;;;;;1.63;0.50;;;14.20;99.90;;;;;;10321530;28;20236;-72
2023/03/10 12:25:27;;;;;;;0.80;0.50;;;14.00;99.90;;;;;;10321681;28;20226;-71
2023/03/10 12:30:57;;;;;;;1.23;0.50;;;13.70;99.90;;;;;;10326938;28;20230;-72
2023/03/10 12:36:01;;;;;;;1.90;0.50;;;13.20;99.90;;;;;;10319361;28;20225;-72
2023/03/10 12:41:02;;;;;;;0.30;0.30;;;12.90;99.90;;;;;;10352989;28;20214;-72
2023/03/10 12:46:08;;;;;;;0.40;0.40;;;12.70;99.90;;;;;;10323929;28;20229;-72
2023/03/10 12:51:16;;;;;;;2.47;0.50;;;12.50;99.90;;;;;;10325058;28;20221;-71
2023/03/10 12:56:20;;;;;;;2.03;0.63;;;12.20;99.90;;;;;;10322778;28;20240;-72
2023/03/10 13:01:24;;;;;;;1.70;0.70;;;12.00;99.90;;;;;;10322176;28;20225;-71
2023/03/10 13:06:55;;;;;;;0.83;0.60;;;11.80;99.90;;;;;;10318931;28;20317;-72
2023/03/10 13:12:07;;;;;;;2.03;0.90;;;11.60;99.90;;;;;;10322710;28;20344;-71
2023/03/10 13:17:28;;;;;;;2.17;0.70;;;11.40;99.90;;;;;;10353245;28;20226;-70
2023/03/10 13:22:29;;;;;;;0.77;0.50;;;11.20;99.90;;;;;;10331327;28;20380;-70
2023/03/10 13:27:32;;;;;;;3.17;0.50;;;11.00;99.90;;;;;;10335173;28;20350;-71
2023/03/10 13:32:33;;;;;;;0.60;0.50;;;11.00;99.90;;;;;;10330822;28;20224;-70
2023/03/10 13:37:33;;;;;;;1.23;0.70;;;10.90;99.90;;;;;;10328965;28;20244;-70
2023/03/10 13:42:34;;;;;;;2.40;0.80;;;10.80;99.90;;;;;;10328161;28;20263;-70
2023/03/10 13:47:35;;;;;;;1.40;1.30;;;10.90;99.90;;;;;;10331503;28;20689;-68
2023/03/10 13:52:36;;;;;;;0.93;0.70;;;10.90;99.90;;;;;;10330020;28;20309;-69
2023/03/10 13:57:37;;;;;;;1.00;0.73;;;10.90;99.90;;;;;;10327048;28;20297;-70
2023/03/10 14:02:45;;;;;;;1.23;0.90;;;10.90;99.90;;;;;;10330035;28;20229;-70
2023/03/10 14:07:58;;;;;;;2.10;0.97;;;10.80;99.90;;;;;;10334675;28;21001;-68
2023/03/10 14:12:59;;;;;;;2.20;0.70;;;10.90;99.90;;;;;;10327358;28;20268;-70
2023/03/10 14:18:05;;;;;;;1.53;0.70;;;10.90;99.90;;;;;;10329096;28;21990;-70
2023/03/10 14:23:18;;;;;;;1.87;0.40;;;10.90;99.90;;;;;;10360686;28;20242;-70
2023/03/10 14:28:30;;;;;;;0.57;0.27;;;10.90;99.90;;;;;;10332516;28;20249;-70
2023/03/10 14:33:32;;;;;;;0.70;0.40;;;11.00;99.90;;;;;;10324781;28;20277;-70
2023/03/10 14:38:33;;;;;;;0.80;0.40;;;11.00;99.90;;;;;;10315553;28;20225;-71
2023/03/10 14:43:34;;;;;;;1.17;0.30;;;11.00;99.90;;;;;;10328012;28;20272;-68
2023/03/10 14:48:38;;;;;;;1.30;0.30;;;11.00;99.90;;;;;;10321042;28;20218;-69
2023/03/10 14:53:39;;;;;;;0.80;0.40;;;11.00;99.90;;;;;;10319617;28;20238;-70
2023/03/10 14:58:49;;;;;;;1.53;0.60;;;11.00;99.90;;;;;;10315959;28;20218;-71
2023/03/10 15:04:16;;;;;;;0.27;0.20;;;11.00;99.90;;;;;;10321017;28;20677;-70
2023/03/10 15:09:18;;;;;;;0.23;0.10;;;11.00;99.90;;;;;;10330332;28;20233;-71
2023/03/10 15:14:19;;;;;;;0.13;0.10;;;10.90;99.90;;;;;;10324680;28;20256;-70
2023/03/10 15:19:25;;;;;;;0.20;0.17;;;10.80;99.90;;;;;;10329625;28;20772;-68
2023/03/10 15:24:26;;;;;;;0.37;0.30;;;10.70;99.90;;;;;;10325463;28;20676;-68
2023/03/10 15:29:26;;;;;;;0.10;0.10;;;10.80;99.90;;;;;;10337220;28;20229;-70
2023/03/10 15:34:27;;;;;;;2.93;0.10;;;10.80;99.90;;;;;;10327482;28;20226;-70
2023/03/10 15:39:28;;;;;;;0.57;0.47;;;10.70;99.90;;;;;;10327590;28;20288;-67
2023/03/10 15:44:28;;;;;;;0.70;0.30;;;10.60;99.90;;;;;;10324871;28;20605;-70
2023/03/10 15:49:29;;;;;;;0.40;0.37;;;10.60;99.90;;;;;;10326956;28;20244;-69
2023/03/10 15:54:32;;;;;;;0.30;0.20;;;10.40;99.90;;;;;;10318516;28;20233;-68
2023/03/10 15:59:34;;;;;;;0.50;0.30;;;10.20;99.90;;;;;;10324201;28;20226;-69
2023/03/10 16:04:35;;;;;;;0.80;0.20;;;10.20;99.90;;;;;;10335086;28;20573;-68
2023/03/10 16:09:35;;;;;;;0.50;0.50;;;10.10;99.90;;;;;;10328365;28;20221;-69
2023/03/10 16:14:37;;;;;;;1.47;0.60;;;10.00;99.90;;;;;;10324798;28;20221;-68
2023/03/10 16:19:37;;;;;;;1.53;0.60;;;10.00;99.90;;;;;;10328823;28;20263;-69
2023/03/10 16:24:38;;;;;;;0.63;0.47;;;10.00;99.90;;;;;;10332085;28;20582;-68
2023/03/10 16:29:39;;;;;;;1.20;0.60;;;9.90;99.90;;;;;;10325929;28;20222;-68
2023/03/10 16:34:40;;;;;;;2.50;0.60;;;9.90;99.90;;;;;;10325709;28;20760;-68
2023/03/10 16:39:42;;;;;;;2.03;0.50;;;9.90;99.90;;;;;;10320316;28;20270;-71
2023/03/10 16:44:42;;;;;;;1.83;0.70;;;9.90;99.90;;;;;;10322639;28;20265;-70
2023/03/10 16:49:43;;;;;;;1.50;0.70;;;9.90;99.90;;;;;;10323759;28;20217;-66
2023/03/10 16:54:45;;;;;;;1.90;0.70;;;9.90;99.90;;;;;;10330097;28;20225;-67
2023/03/10 16:59:46;;;;;;;2.60;0.70;;;9.80;99.90;;;;;;10332348;28;20218;-69
2023/03/10 17:04:47;;;;;;;3.03;0.70;;;9.70;99.90;;;;;;10333459;28;20228;-68
2023/03/10 17:09:48;;;;;;;3.90;1.13;;;9.60;99.90;;;;;;10333249;28;20214;-70
2023/03/10 17:14:49;;;;;;;2.83;1.10;;;9.50;99.90;;;;;;10333065;28;20228;-69
2023/03/10 17:19:50;;;;;;;1.70;0.80;;;9.50;99.90;;;;;;10336476;28;20326;-71
2023/03/10 17:24:55;;;;;;;2.27;0.97;;;9.30;99.90;;;;;;10331204;28;20739;-69
2023/03/10 17:29:58;;;;;;;2.70;1.00;;;9.10;99.90;;;;;;10330594;28;20221;-68
2023/03/10 17:34:59;;;;;;;2.60;0.77;;;9.10;99.90;;;;;;10346672;28;20221;-69
2023/03/10 17:40:00;;;;;;;1.80;0.80;;;9.00;99.90;;;;;;10331493;28;20225;-69
2023/03/10 17:45:02;;;;;;;2.93;1.00;;;9.00;99.90;;;;;;10331125;28;20232;-70
2023/03/10 17:50:03;;;;;;;1.10;0.70;;;9.00;99.90;;;;;;10323791;28;20234;-71
2023/03/10 17:55:05;;;;;;;1.83;0.83;;;9.00;99.90;;;;;;10330706;28;20232;-70
2023/03/10 18:00:06;;;;;;;0.50;0.50;;;8.90;99.90;;;;;;10330764;28;20236;-69
2023/03/10 18:05:07;;;;;;;2.20;0.87;;;8.70;99.90;;;;;;10322485;28;20491;-68
2023/03/10 18:10:10;;;;;;;2.93;0.93;;;8.80;99.90;;;;;;10337098;28;20252;-67
2023/03/10 18:15:11;;;;;;;0.80;0.60;;;8.70;99.90;;;;;;10330443;28;20276;-69
2023/03/10 18:20:13;;;;;;;1.50;0.93;;;8.70;99.90;;;;;;10324623;28;20207;-71
2023/03/10 18:25:14;;;;;;;1.43;0.80;;;8.60;99.90;;;;;;10332880;28;20223;-71
2023/03/10 18:30:15;;;;;;;1.00;0.70;;;8.60;99.90;;;;;;10330453;28;20542;-70
2023/03/10 18:35:16;;;;;;;0.70;0.60;;;8.40;99.90;;;;;;10325160;28;20271;-69
2023/03/10 18:40:17;;;;;;;2.70;0.60;;;8.20;99.90;;;;;;10335100;28;20288;-69
2023/03/10 18:45:18;;;;;;;0.50;0.50;;;7.90;99.90;;;;;;10328650;28;20206;-69
2023/03/10 18:50:18;;;;;;;2.77;0.80;;;7.50;99.90;;;;;;10328356;28;20285;-69
2023/03/10 18:55:19;;;;;;;1.33;1.07;;;7.20;99.90;;;;;;10330563;28;20202;-69
2023/03/10 19:00:21;;;;;;;0.30;0.30;;;7.00;99.90;;;;;;10333178;28;20213;-68
2023/03/10 19:05:21;;;;;;;2.33;1.00;;;6.70;99.90;;;;;;10328904;28;20280;-70
2023/03/10 19:10:22;;;;;;;0.67;0.60;;;6.10;99.90;;;;;;10339386;28;20245;-69
2023/03/10 19:15:23;;;;;;;0.30;0.30;;;5.80;99.90;;;;;;10328610;28;20278;-70
2023/03/10 19:20:24;;;;;;;1.70;0.80;;;5.60;99.90;;;;;;10319747;28;20189;-70
2023/03/10 19:25:24;;;;;;;1.83;0.60;;;5.60;99.90;;;;;;10340883;28;20319;-68
2023/03/10 19:30:25;;;;;;;2.60;1.20;;;5.70;99.90;;;;;;10327735;28;20285;-68
2023/03/10 19:35:26;;;;;;;1.63;1.00;;;5.80;99.90;;;;;;10327079;28;20225;-69
2023/03/10 19:40:26;;;;;;;2.57;1.17;;;5.80;99.90;;;;;;10325928;28;20224;-69
2023/03/10 19:45:27;;;;;;;1.80;1.17;;;5.90;99.90;;;;;;10323887;28;20222;-69
2023/03/10 19:50:28;;;;;;;2.50;1.60;;;5.90;99.90;;;;;;10327268;28;20226;-70
2023/03/10 19:55:28;;;;;;;2.37;1.50;;;5.90;99.90;;;;;;10327180;28;20227;-70
2023/03/10 20:00:34;;;;;;;2.47;2.00;;;5.80;99.90;;;;;;10317392;28;20217;-68
2023/03/10 20:05:34;;;;;;;1.50;1.40;;;5.70;99.90;;;;;;10325960;28;20233;-69
2023/03/10 20:10:35;;;;;;;2.00;1.80;;;5.50;99.90;;;;;;10330760;28;20225;-70
2023/03/10 20:15:37;;;;;;;2.43;1.73;;;5.50;99.90;;;;;;10330790;28;20229;-69
2023/03/10 20:20:39;;;;;;;2.00;1.80;;;5.40;99.90;;;;;;10325922;28;20218;-71
2023/03/10 20:25:40;;;;;;;1.73;1.40;;;5.30;99.90;;;;;;10324847;28;20236;-69
2023/03/10 20:30:43;;;;;;;2.10;1.90;;;5.30;99.90;;;;;;10327466;28;20688;-71
2023/03/10 20:35:44;;;;;;;2.00;1.50;;;5.30;99.90;;;;;;10319018;28;20234;-71
2023/03/10 20:40:48;;;;;;;2.70;1.57;;;5.30;99.90;;;;;;10319458;28;20219;-71
2023/03/10 20:45:50;;;;;;;3.00;1.80;;;5.30;99.90;;;;;;10325726;28;20245;-70
2023/03/10 20:50:55;;;;;;;1.90;1.70;;;5.30;99.90;;;;;;10324367;28;20214;-71
2023/03/10 20:55:56;;;;;;;4.30;1.63;;;5.30;99.90;;;;;;10349886;28;20302;-72
2023/03/10 21:00:57;;;;;;;2.67;1.50;;;5.20;99.90;;;;;;10326112;28;20276;-69
2023/03/10 21:05:57;;;;;;;1.63;1.43;;;5.20;99.90;;;;;;10325670;28;20240;-69
2023/03/10 21:10:58;;;;;;;1.60;1.50;;;5.20;99.90;;;;;;10328853;28;20647;-69
2023/03/10 21:15:58;;;;;;;1.70;1.40;;;5.20;99.90;;;;;;10325634;28;20701;-69
2023/03/10 21:21:05;;;;;;;1.30;1.20;;;5.20;99.90;;;;;;10325943;28;20234;-69
2023/03/10 21:26:14;;;;;;;1.70;1.40;;;5.20;99.90;;;;;;10310692;28;20321;-69
2023/03/10 21:31:15;;;;;;;2.07;1.60;;;5.20;99.90;;;;;;10325967;28;20222;-71
2023/03/10 21:36:19;;;;;;;1.67;1.13;;;5.20;99.90;;;;;;10325126;28;20226;-69
2023/03/10 21:41:23;;;;;;;1.57;1.47;;;5.20;99.90;;;;;;10329587;28;20230;-70
2023/03/10 21:46:25;;;;;;;2.07;1.40;;;5.20;99.90;;;;;;10328136;28;20235;-71
2023/03/10 21:51:26;;;;;;;1.30;1.20;;;5.10;99.90;;;;;;10329183;28;20880;-69
2023/03/10 21:56:27;;;;;;;1.23;0.90;;;5.20;99.90;;;;;;10330116;28;20322;-71
2023/03/10 22:01:28;;;;;;;1.13;1.03;;;5.10;99.90;;;;;;10331589;28;20226;-68
2023/03/10 22:06:29;;;;;;;2.10;0.80;;;5.10;99.90;;;;;;10335737;28;20290;-69
2023/03/10 22:11:30;;;;;;;2.43;1.23;;;5.00;99.90;;;;;;10332741;28;20365;-70
2023/03/10 22:16:31;;;;;;;1.10;0.90;;;4.90;99.90;;;;;;10329589;28;20238;-70
2023/03/10 22:21:31;;;;;;;0.93;0.70;;;5.00;99.90;;;;;;10337261;28;20228;-66
2023/03/10 22:26:32;;;;;;;1.20;1.10;;;5.00;99.90;;;;;;10329414;28;20287;-68
2023/03/10 22:31:32;;;;;;;0.80;0.80;;;5.10;99.90;;;;;;10330406;28;20706;-69
2023/03/10 22:36:33;;;;;;;0.60;0.60;;;5.10;99.90;;;;;;10328070;28;20646;-67
2023/03/10 22:41:33;;;;;;;0.50;0.50;;;4.90;99.90;;;;;;10331749;28;20621;-67
2023/03/10 22:46:34;;;;;;;1.90;0.70;;;4.70;99.90;;;;;;10329162;28;20262;-67
2023/03/10 22:51:35;;;;;;;0.77;0.60;;;4.60;99.90;;;;;;10328400;28;20228;-68
2023/03/10 22:56:36;;;;;;;1.03;1.03;;;4.50;99.90;;;;;;10329105;28;20230;-68
2023/03/10 23:01:36;;;;;;;1.00;0.80;;;4.40;99.90;;;;;;10329582;28;20241;-67
2023/03/10 23:06:37;;;;;;;1.30;0.90;;;4.30;99.90;;;;;;10328368;28;20319;-67
2023/03/10 23:11:37;;;;;;;1.13;1.03;;;4.30;99.90;;;;;;10323355;28;20229;-66
2023/03/10 23:16:39;;;;;;;1.20;1.10;;;4.20;99.90;;;;;;10323816;28;20230;-67
2023/03/10 23:21:39;;;;;;;2.23;1.67;;;4.40;99.90;;;;;;10327913;28;20231;-68
2023/03/10 23:26:40;;;;;;;1.53;0.83;;;4.50;99.90;;;;;;10327158;28;20267;-68
2023/03/10 23:31:40;;;;;;;0.80;0.80;;;4.30;99.90;;;;;;10327616;28;20597;-67
2023/03/10 23:36:41;;;;;;;1.10;1.00;;;4.20;99.90;;;;;;10326629;28;20602;-68
2023/03/10 23:41:41;;;;;;;1.10;1.00;;;4.20;99.90;;;;;;10326531;28;20589;-68
2023/03/10 23:46:42;;;;;;;0.87;0.87;;;4.10;99.90;;;;;;10327337;28;20603;-68
2023/03/10 23:51:42;;;;;;;1.27;1.00;;;3.90;99.90;;;;;;10325290;28;20874;-68
2023/03/10 23:56:43;;;;;;;2.43;1.07;;;3.90;99.90;;;;;;10325436;28;20232;-67
